Clevedon, United Kingdom
Current Conditions -  °F | °C
As of 2:50 PM on Tuesday 21 Oct 2014 (Local Time) from EGGD Reporting Station
Rain Showers Rain Showers  
Wind Chill: 52°   Ceiling: Unl
Heat Index: 52°   Visibility: 6mi
Dew Point: 39°   Wind: 30mph
Humidity: 62%   Direction: 280°W
Pressure: 29.88"   Gusts: NA
Location:  51.44°N, 2.86°W
Report Text: EGGD 211350Z 28026KT 9999 VCSH FEW028 SCT034CB 11/04 Q1012
Loading
Personal Weather Stations






























Interactive Weather Map
Tropical Storm Tracking
New forecast layout! Learn more

10-Day Weather Forecast

Advertisements
Track Severe Weather on mobile